Time,TemperatureF,DewpointF,PressureIn,WindDirection,WindDirectionDegrees,WindSpeedMPH,WindSpeedGustMPH,Humidity,HourlyPrecipIn,Conditions,Clouds,dailyrainin,SoftwareType,DateUTC
2018-01-17 00:03:00,50.5,50.0,30.33,NNW,338,0.0,-999.0,98,0.00,,,0.00,,2018-01-17 08:03:00,
2018-01-17 00:13:00,50.3,50.0,30.32,ESE,113,0.0,-999.0,98,0.00,,,0.00,,2018-01-17 08:13:00,
2018-01-17 00:18:00,50.1,49.0,30.32,NW,315,0.0,-999.0,98,0.00,,,0.00,,2018-01-17 08:18:00,
2018-01-17 00:23:00,50.0,49.0,30.32,NW,315,0.0,-999.0,98,0.00,,,0.00,,2018-01-17 08:23:00,
2018-01-17 00:33:00,49.8,49.0,30.31,West,270,1.0,-999.0,98,0.00,,,0.00,,2018-01-17 08:33:00,
2018-01-17 00:38:00,49.6,49.0,30.32,West,270,2.0,-999.0,98,0.00,,,0.00,,2018-01-17 08:38:00,
2018-01-17 00:55:00,49.4,49.0,30.32,WNW,293,0.0,-999.0,98,0.00,,,0.00,,2018-01-17 08:55:00,
2018-01-17 01:05:00,49.0,48.0,30.31,NW,315,0.0,-999.0,98,0.00,,,0.00,,2018-01-17 09:05:00,
2018-01-17 01:10:00,48.9,48.0,30.31,WNW,293,1.0,-999.0,98,0.00,,,0.00,,2018-01-17 09:10:00,
2018-01-17 01:15:00,48.9,48.0,30.32,NW,315,1.0,-999.0,98,0.00,,,0.00,,2018-01-17 09:15:00,
2018-01-17 01:20:00,48.6,48.0,30.32,WNW,293,1.0,-999.0,98,0.00,,,0.00,,2018-01-17 09:20:00,
2018-01-17 01:25:00,48.6,48.0,30.32,NNW,338,0.0,-999.0,98,0.00,,,0.00,,2018-01-17 09:25:00,
2018-01-17 01:37:00,48.5,48.0,30.31,NW,315,1.0,-999.0,98,0.00,,,0.00,,2018-01-17 09:37:00,
2018-01-17 01:47:00,48.4,48.0,30.32,WNW,293,1.0,-999.0,98,0.00,,,0.00,,2018-01-17 09:47:00,
2018-01-17 01:59:00,48.2,47.0,30.32,West,270,0.0,-999.0,98,0.00,,,0.00,,2018-01-17 09:59:00,
2018-01-17 02:04:00,48.0,47.0,30.32,NE,45,0.0,-999.0,98,0.00,,,0.00,,2018-01-17 10:04:00,
2018-01-17 02:14:00,47.6,47.0,30.32,WNW,293,1.0,-999.0,98,0.00,,,0.00,,2018-01-17 10:14:00,
2018-01-17 02:19:00,47.6,47.0,30.32,West,270,1.0,-999.0,98,0.00,,,0.00,,2018-01-17 10:19:00,
2018-01-17 02:24:00,47.6,47.0,30.32,North,0,1.0,-999.0,98,0.00,,,0.00,,2018-01-17 10:24:00,
2018-01-17 02:29:00,47.5,47.0,30.32,NNW,338,1.0,-999.0,98,0.00,,,0.00,,2018-01-17 10:29:00,
2018-01-17 02:35:00,47.3,47.0,30.32,WNW,293,1.0,-999.0,98,0.00,,,0.00,,2018-01-17 10:35:00,
2018-01-17 02:40:00,47.1,46.0,30.32,WNW,293,0.0,-999.0,98,0.00,,,0.00,,2018-01-17 10:40:00,
2018-01-17 02:45:00,46.9,46.0,30.32,WNW,293,1.0,-999.0,98,0.00,,,0.00,,2018-01-17 10:45:00,
2018-01-17 02:52:00,47.1,46.0,30.32,WNW,293,1.0,-999.0,98,0.00,,,0.00,,2018-01-17 10:52:00,
2018-01-17 02:58:00,46.9,46.0,30.32,NW,315,0.0,-999.0,98,0.00,,,0.00,,2018-01-17 10:58:00,
2018-01-17 03:03:00,46.7,46.0,30.32,NNW,338,1.0,-999.0,98,0.00,,,0.00,,2018-01-17 11:03:00,
2018-01-17 03:08:00,46.7,46.0,30.32,WNW,293,1.0,-999.0,98,0.00,,,0.00,,2018-01-17 11:08:00,
2018-01-17 03:13:00,46.7,46.0,30.31,NW,315,0.0,-999.0,98,0.00,,,0.00,,2018-01-17 11:13:00,
2018-01-17 03:20:00,46.4,46.0,30.31,NNW,338,0.0,-999.0,98,0.00,,,0.00,,2018-01-17 11:20:00,
2018-01-17 03:25:00,46.4,46.0,30.31,NNW,338,1.0,-999.0,98,0.00,,,0.00,,2018-01-17 11:25:00,
2018-01-17 03:30:00,46.1,45.0,30.31,WNW,293,2.0,-999.0,98,0.00,,,0.00,,2018-01-17 11:30:00,
2018-01-17 03:37:00,46.1,45.0,30.31,WNW,293,1.0,-999.0,98,0.00,,,0.00,,2018-01-17 11:37:00,
2018-01-17 03:42:00,45.9,45.0,30.31,West,270,1.0,-999.0,98,0.00,,,0.00,,2018-01-17 11:42:00,
2018-01-17 03:47:00,45.9,45.0,30.31,North,0,0.0,-999.0,98,0.00,,,0.00,,2018-01-17 11:47:00,
2018-01-17 03:52:00,45.9,45.0,30.31,WNW,293,2.0,-999.0,98,0.00,,,0.00,,2018-01-17 11:52:00,
2018-01-17 03:57:00,45.9,45.0,30.31,North,0,2.0,-999.0,98,0.00,,,0.00,,2018-01-17 11:57:00,
2018-01-17 04:03:00,45.9,45.0,30.31,WNW,293,0.0,-999.0,98,0.00,,,0.00,,2018-01-17 12:03:00,
2018-01-17 04:08:00,45.9,45.0,30.31,WNW,293,1.0,-999.0,98,0.00,,,0.00,,2018-01-17 12:08:00,
2018-01-17 04:13:00,45.9,45.0,30.30,WNW,293,0.0,-999.0,98,0.00,,,0.00,,2018-01-17 12:13:00,
2018-01-17 04:20:00,45.7,45.0,30.30,WNW,293,1.0,-999.0,98,0.00,,,0.00,,2018-01-17 12:20:00,
2018-01-17 04:27:00,45.7,45.0,30.30,West,270,1.0,-999.0,98,0.00,,,0.00,,2018-01-17 12:27:00,
2018-01-17 04:32:00,45.7,45.0,30.30,NNW,338,0.0,-999.0,98,0.00,,,0.00,,2018-01-17 12:32:00,
2018-01-17 04:43:00,45.5,45.0,30.30,WNW,293,1.0,-999.0,98,0.00,,,0.00,,2018-01-17 12:43:00,
2018-01-17 04:49:00,45.5,45.0,30.30,WNW,293,2.0,-999.0,98,0.00,,,0.00,,2018-01-17 12:49:00,
2018-01-17 05:02:00,45.5,45.0,30.31,NNW,338,1.0,-999.0,98,0.00,,,0.00,,2018-01-17 13:02:00,
2018-01-17 05:07:00,45.5,45.0,30.31,WNW,293,1.0,-999.0,98,0.00,,,0.00,,2018-01-17 13:07:00,
2018-01-17 05:12:00,45.5,45.0,30.31,WNW,293,1.0,-999.0,98,0.00,,,0.00,,2018-01-17 13:12:00,
2018-01-17 05:25:00,45.7,45.0,30.31,West,270,1.0,-999.0,98,0.00,,,0.00,,2018-01-17 13:25:00,
2018-01-17 05:35:00,45.5,45.0,30.32,WNW,293,1.0,-999.0,98,0.00,,,0.00,,2018-01-17 13:35:00,
2018-01-17 05:40:00,45.5,45.0,30.32,WNW,293,1.0,-999.0,98,0.00,,,0.00,,2018-01-17 13:40:00,
2018-01-17 05:47:00,45.5,45.0,30.32,West,270,0.0,-999.0,98,0.00,,,0.00,,2018-01-17 13:47:00,
2018-01-17 05:55:00,45.7,45.0,30.32,NW,315,1.0,-999.0,98,0.00,,,0.00,,2018-01-17 13:55:00,
2018-01-17 06:00:00,45.7,45.0,30.32,West,270,1.0,-999.0,98,0.00,,,0.00,,2018-01-17 14:00:00,
2018-01-17 06:05:00,45.7,45.0,30.32,NNW,338,1.0,-999.0,98,0.00,,,0.00,,2018-01-17 14:05:00,
2018-01-17 06:12:00,45.5,45.0,30.32,WNW,293,1.0,-999.0,98,0.00,,,0.00,,2018-01-17 14:12:00,
2018-01-17 06:17:00,45.5,45.0,30.33,NNW,338,1.0,-999.0,98,0.00,,,0.00,,2018-01-17 14:17:00,
2018-01-17 06:25:00,45.5,45.0,30.34,WNW,293,1.0,-999.0,98,0.00,,,0.00,,2018-01-17 14:25:00,
2018-01-17 06:30:00,45.5,45.0,30.33,NE,45,1.0,-999.0,98,0.00,,,0.00,,2018-01-17 14:30:00,
2018-01-17 06:43:00,45.5,45.0,30.34,WNW,293,2.0,-999.0,98,0.00,,,0.00,,2018-01-17 14:43:00,
2018-01-17 06:54:00,46.1,45.0,30.33,NNE,23,1.0,-999.0,98,0.00,,,0.00,,2018-01-17 14:54:00,
2018-01-17 07:09:00,46.4,46.0,30.34,West,270,0.0,-999.0,98,0.00,,,0.00,,2018-01-17 15:09:00,
2018-01-17 07:14:00,46.4,46.0,30.34,West,270,1.0,-999.0,98,0.00,,,0.00,,2018-01-17 15:14:00,
2018-01-17 07:25:00,46.4,46.0,30.35,West,270,0.0,-999.0,98,0.00,,,0.00,,2018-01-17 15:25:00,
2018-01-17 07:35:00,47.5,47.0,30.35,NNW,338,1.0,-999.0,98,0.00,,,0.00,,2018-01-17 15:35:00,
2018-01-17 07:43:00,48.5,47.0,30.35,NE,45,1.0,-999.0,96,0.00,,,0.00,,2018-01-17 15:43:00,
2018-01-17 07:48:00,49.8,48.0,30.34,NNW,338,1.0,-999.0,95,0.00,,,0.00,,2018-01-17 15:48:00,
2018-01-17 07:55:00,51.3,48.0,30.35,WNW,293,0.0,-999.0,90,0.00,,,0.00,,2018-01-17 15:55:00,
2018-01-17 08:01:00,52.6,49.0,30.34,NNW,338,0.0,-999.0,88,0.00,,,0.00,,2018-01-17 16:01:00,
2018-01-17 08:10:00,55.1,50.0,30.34,WNW,293,0.0,-999.0,83,0.00,,,0.00,,2018-01-17 16:10:00,
2018-01-17 08:17:00,56.7,50.0,30.34,North,0,0.0,-999.0,80,0.00,,,0.00,,2018-01-17 16:17:00,
2018-01-17 08:26:00,59.0,52.0,30.35,ESE,113,0.0,-999.0,79,0.00,,,0.00,,2018-01-17 16:26:00,
2018-01-17 08:31:00,59.9,52.0,30.34,SE,135,0.0,-999.0,76,0.00,,,0.00,,2018-01-17 16:31:00,
2018-01-17 08:45:00,61.3,50.0,30.34,WNW,293,1.0,-999.0,68,0.00,,,0.00,,2018-01-17 16:45:00,
2018-01-17 08:50:00,61.9,49.0,30.34,NW,315,1.0,-999.0,65,0.00,,,0.00,,2018-01-17 16:50:00,
2018-01-17 08:55:00,64.1,50.0,30.34,NNW,338,1.0,-999.0,60,0.00,,,0.00,,2018-01-17 16:55:00,
2018-01-17 09:00:00,65.2,50.0,30.34,NE,45,1.0,-999.0,59,0.00,,,0.00,,2018-01-17 17:00:00,
2018-01-17 09:08:00,66.6,50.0,30.34,ESE,113,1.0,-999.0,56,0.00,,,0.00,,2018-01-17 17:08:00,
2018-01-17 09:19:00,67.8,51.0,30.34,NNE,23,2.0,-999.0,55,0.00,,,0.00,,2018-01-17 17:19:00,
2018-01-17 09:24:00,69.4,48.0,30.34,NNE,23,1.0,-999.0,46,0.00,,,0.00,,2018-01-17 17:24:00,
2018-01-17 09:29:00,70.5,48.0,30.34,SE,135,2.0,-999.0,45,0.00,,,0.00,,2018-01-17 17:29:00,
2018-01-17 09:38:00,70.5,49.0,30.34,ESE,113,2.0,-999.0,48,0.00,,,0.00,,2018-01-17 17:38:00,
2018-01-17 09:44:00,72.3,47.0,30.34,NNE,23,3.0,-999.0,41,0.00,,,0.00,,2018-01-17 17:44:00,
2018-01-17 09:48:00,73.1,47.0,30.34,NNE,23,2.0,-999.0,40,0.00,,,0.00,,2018-01-17 17:48:00,
2018-01-17 09:53:00,74.6,48.0,30.35,South,180,1.0,-999.0,39,0.00,,,0.00,,2018-01-17 17:53:00,
2018-01-17 09:59:00,74.8,48.0,30.35,ESE,113,3.0,-999.0,39,0.00,,,0.00,,2018-01-17 17:59:00,
2018-01-17 10:04:00,75.6,48.0,30.34,ESE,113,3.0,-999.0,37,0.00,,,0.00,,2018-01-17 18:04:00,
2018-01-17 10:09:00,76.4,47.0,30.34,North,0,3.0,-999.0,35,0.00,,,0.00,,2018-01-17 18:09:00,
2018-01-17 10:14:00,76.4,48.0,30.34,NE,45,2.0,-999.0,37,0.00,,,0.00,,2018-01-17 18:14:00,
2018-01-17 10:23:00,77.5,47.0,30.34,SE,135,4.0,-999.0,35,0.00,,,0.00,,2018-01-17 18:23:00,
2018-01-17 10:29:00,76.9,46.0,30.34,NE,45,1.0,-999.0,34,0.00,,,0.00,,2018-01-17 18:29:00,
2018-01-17 10:34:00,77.1,45.0,30.34,ESE,113,6.0,-999.0,31,0.00,,,0.00,,2018-01-17 18:34:00,
2018-01-17 10:44:00,77.4,45.0,30.35,ENE,68,2.0,-999.0,31,0.00,,,0.00,,2018-01-17 18:44:00,
2018-01-17 10:49:00,77.4,45.0,30.34,NNW,338,1.0,-999.0,31,0.00,,,0.00,,2018-01-17 18:49:00,
2018-01-17 10:54:00,77.4,45.0,30.34,ESE,113,2.0,-999.0,31,0.00,,,0.00,,2018-01-17 18:54:00,
2018-01-17 11:00:00,76.8,44.0,30.35,ESE,113,3.0,-999.0,31,0.00,,,0.00,,2018-01-17 19:00:00,
2018-01-17 11:16:00,71.5,51.0,30.35,SSW,203,3.0,-999.0,50,0.00,,,0.00,,2018-01-17 19:16:00,
2018-01-17 11:21:00,70.6,52.0,30.35,SSW,203,4.0,-999.0,53,0.00,,,0.00,,2018-01-17 19:21:00,
2018-01-17 11:26:00,70.3,52.0,30.35,SSW,203,4.0,-999.0,54,0.00,,,0.00,,2018-01-17 19:26:00,
2018-01-17 11:31:00,70.1,52.0,30.34,SSE,158,6.0,-999.0,54,0.00,,,0.00,,2018-01-17 19:31:00,
2018-01-17 11:36:00,70.5,53.0,30.34,SSE,158,5.0,-999.0,55,0.00,,,0.00,,2018-01-17 19:36:00,
2018-01-17 11:41:00,70.5,54.0,30.34,South,180,2.0,-999.0,55,0.00,,,0.00,,2018-01-17 19:41:00,
2018-01-17 11:46:00,70.1,54.0,30.34,ESE,113,3.0,-999.0,56,0.00,,,0.00,,2018-01-17 19:46:00,
2018-01-17 11:51:00,70.5,55.0,30.34,South,180,2.0,-999.0,58,0.00,,,0.00,,2018-01-17 19:51:00,
2018-01-17 11:56:00,71.0,55.0,30.34,South,180,2.0,-999.0,58,0.00,,,0.00,,2018-01-17 19:56:00,
2018-01-17 12:02:00,70.5,55.0,30.34,SSW,203,1.0,-999.0,59,0.00,,,0.00,,2018-01-17 20:02:00,
2018-01-17 12:08:00,70.5,55.0,30.33,South,180,3.0,-999.0,59,0.00,,,0.00,,2018-01-17 20:08:00,
2018-01-17 12:13:00,71.0,56.0,30.33,SSE,158,6.0,-999.0,59,0.00,,,0.00,,2018-01-17 20:13:00,
2018-01-17 12:18:00,71.0,56.0,30.33,ESE,113,6.0,-999.0,59,0.00,,,0.00,,2018-01-17 20:18:00,
2018-01-17 12:24:00,72.1,56.0,30.32,West,270,3.0,-999.0,58,0.00,,,0.00,,2018-01-17 20:24:00,
2018-01-17 12:30:00,72.8,56.0,30.32,SSE,158,2.0,-999.0,56,0.00,,,0.00,,2018-01-17 20:30:00,
2018-01-17 12:37:00,72.8,56.0,30.32,SSE,158,5.0,-999.0,56,0.00,,,0.00,,2018-01-17 20:37:00,
2018-01-17 12:42:00,72.5,56.0,30.32,South,180,4.0,-999.0,58,0.00,,,0.00,,2018-01-17 20:42:00,
2018-01-17 12:47:00,73.0,57.0,30.32,SSE,158,3.0,-999.0,58,0.00,,,0.00,,2018-01-17 20:47:00,
2018-01-17 12:53:00,73.4,56.0,30.31,South,180,3.0,-999.0,55,0.00,,,0.00,,2018-01-17 20:53:00,
2018-01-17 12:58:00,72.1,56.0,30.31,South,180,5.0,-999.0,56,0.00,,,0.00,,2018-01-17 20:58:00,
2018-01-17 13:01:00,-999.9,-99.9,30.30,SSE,158,5.0,-999.0,-999,0.00,,,0.00,,2018-01-17 21:01:00,
2018-01-17 13:03:00,72.8,56.0,30.31,WSW,248,3.0,-999.0,55,0.00,,,0.00,,2018-01-17 21:03:00,
2018-01-17 13:05:00,73.0,56.0,30.31,ESE,113,4.0,-999.0,55,0.00,,,0.00,,2018-01-17 21:05:00,
2018-01-17 13:10:00,73.4,56.0,30.30,SSE,158,6.0,-999.0,55,0.00,,,0.00,,2018-01-17 21:10:00,
2018-01-17 13:11:00,73.1,56.0,30.30,South,180,2.0,-999.0,55,0.00,,,0.00,,2018-01-17 21:11:00,
2018-01-17 13:16:00,73.1,56.0,30.30,SSE,158,2.0,-999.0,55,0.00,,,0.00,,2018-01-17 21:16:00,
2018-01-17 13:19:00,73.0,55.0,30.30,SSE,158,5.0,-999.0,55,0.00,,,0.00,,2018-01-17 21:19:00,
2018-01-17 13:20:00,73.1,56.0,30.30,SSE,158,6.0,-999.0,55,0.00,,,0.00,,2018-01-17 21:20:00,
2018-01-17 13:24:00,73.4,55.0,30.30,ESE,113,3.0,-999.0,54,0.00,,,0.00,,2018-01-17 21:24:00,
2018-01-17 13:29:00,73.9,55.0,30.30,South,180,4.0,-999.0,53,0.00,,,0.00,,2018-01-17 21:29:00,
2018-01-17 13:31:00,73.9,55.0,30.30,South,180,3.0,-999.0,51,0.00,,,0.00,,2018-01-17 21:31:00,
2018-01-17 13:34:00,74.4,55.0,30.29,SSE,158,3.0,-999.0,51,0.00,,,0.00,,2018-01-17 21:34:00,
2018-01-17 13:36:00,-999.9,-99.9,30.29,SW,225,1.0,-999.0,-999,0.00,,,0.00,,2018-01-17 21:36:00,
2018-01-17 13:37:00,75.3,56.0,30.29,South,180,1.0,-999.0,51,0.00,,,0.00,,2018-01-17 21:37:00,
2018-01-17 13:42:00,74.3,54.0,30.29,ESE,113,5.0,-999.0,50,0.00,,,0.00,,2018-01-17 21:42:00,
2018-01-17 13:43:00,74.0,54.0,30.30,ESE,113,3.0,-999.0,50,0.00,,,0.00,,2018-01-17 21:43:00,
2018-01-17 13:48:00,75.5,55.0,30.29,SSW,203,3.0,-999.0,50,0.00,,,0.00,,2018-01-17 21:48:00,
2018-01-17 13:53:00,75.3,54.0,30.30,SSE,158,5.0,-999.0,49,0.00,,,0.00,,2018-01-17 21:53:00,
2018-01-17 13:58:00,74.0,54.0,30.29,SSE,158,5.0,-999.0,50,0.00,,,0.00,,2018-01-17 21:58:00,
2018-01-17 14:03:00,73.8,55.0,30.29,South,180,2.0,-999.0,51,0.00,,,0.00,,2018-01-17 22:03:00,
2018-01-17 14:08:00,73.9,55.0,30.29,South,180,2.0,-999.0,53,0.00,,,0.00,,2018-01-17 22:08:00,
2018-01-17 14:13:00,74.3,56.0,30.29,SSE,158,3.0,-999.0,53,0.00,,,0.00,,2018-01-17 22:13:00,
2018-01-17 14:14:00,74.4,56.0,30.29,SSE,158,3.0,-999.0,53,0.00,,,0.00,,2018-01-17 22:14:00,
2018-01-17 14:19:00,74.4,56.0,30.29,South,180,3.0,-999.0,53,0.00,,,0.00,,2018-01-17 22:19:00,
2018-01-17 14:24:00,74.3,56.0,30.27,South,180,4.0,-999.0,53,0.00,,,0.00,,2018-01-17 22:24:00,
2018-01-17 14:29:00,74.3,56.0,30.28,SSE,158,2.0,-999.0,53,0.00,,,0.00,,2018-01-17 22:29:00,
2018-01-17 14:34:00,74.3,56.0,30.28,South,180,2.0,-999.0,53,0.00,,,0.00,,2018-01-17 22:34:00,
2018-01-17 14:39:00,74.3,56.0,30.27,South,180,4.0,-999.0,54,0.00,,,0.00,,2018-01-17 22:39:00,
2018-01-17 14:44:00,73.9,55.0,30.27,South,180,2.0,-999.0,53,0.00,,,0.00,,2018-01-17 22:44:00,
2018-01-17 14:49:00,73.8,55.0,30.27,South,180,3.0,-999.0,51,0.00,,,0.00,,2018-01-17 22:49:00,
2018-01-17 14:54:00,73.8,55.0,30.27,WNW,293,3.0,-999.0,51,0.00,,,0.00,,2018-01-17 22:54:00,
2018-01-17 14:59:00,73.5,54.0,30.27,ESE,113,4.0,-999.0,51,0.00,,,0.00,,2018-01-17 22:59:00,
2018-01-17 15:04:00,74.0,55.0,30.27,SSW,203,3.0,-999.0,51,0.00,,,0.00,,2018-01-17 23:04:00,
2018-01-17 15:09:00,73.8,55.0,30.28,WSW,248,3.0,-999.0,51,0.00,,,0.00,,2018-01-17 23:09:00,
2018-01-17 15:14:00,73.4,53.0,30.27,SSE,158,3.0,-999.0,50,0.00,,,0.00,,2018-01-17 23:14:00,
2018-01-17 15:19:00,73.1,54.0,30.27,SSE,158,4.0,-999.0,51,0.00,,,0.00,,2018-01-17 23:19:00,
2018-01-17 15:24:00,73.1,55.0,30.27,SW,225,2.0,-999.0,53,0.00,,,0.00,,2018-01-17 23:24:00,
2018-01-17 15:29:00,72.6,54.0,30.27,SE,135,3.0,-999.0,53,0.00,,,0.00,,2018-01-17 23:29:00,
2018-01-17 15:34:00,72.3,54.0,30.27,SSE,158,5.0,-999.0,54,0.00,,,0.00,,2018-01-17 23:34:00,
2018-01-17 15:39:00,71.8,55.0,30.27,ESE,113,4.0,-999.0,55,0.00,,,0.00,,2018-01-17 23:39:00,
2018-01-17 15:44:00,70.3,55.0,30.27,South,180,5.0,-999.0,60,0.00,,,0.00,,2018-01-17 23:44:00,
2018-01-17 15:49:00,69.8,55.0,30.27,SE,135,3.0,-999.0,61,0.00,,,0.00,,2018-01-17 23:49:00,
2018-01-17 15:54:00,69.6,56.0,30.27,SE,135,4.0,-999.0,61,0.00,,,0.00,,2018-01-17 23:54:00,
2018-01-17 15:59:00,69.0,55.0,30.27,SSE,158,2.0,-999.0,63,0.00,,,0.00,,2018-01-17 23:59:00,
2018-01-17 16:04:00,68.9,55.0,30.27,SSE,158,3.0,-999.0,63,0.00,,,0.00,,2018-01-18 00:04:00,
2018-01-17 16:09:00,68.4,55.0,30.27,South,180,3.0,-999.0,63,0.00,,,0.00,,2018-01-18 00:09:00,
2018-01-17 16:14:00,68.4,54.0,30.28,South,180,2.0,-999.0,61,0.00,,,0.00,,2018-01-18 00:14:00,
2018-01-17 16:19:00,68.1,54.0,30.27,SSE,158,3.0,-999.0,61,0.00,,,0.00,,2018-01-18 00:19:00,
2018-01-17 16:24:00,68.0,54.0,30.28,South,180,2.0,-999.0,63,0.00,,,0.00,,2018-01-18 00:24:00,
2018-01-17 16:29:00,67.6,54.0,30.28,South,180,2.0,-999.0,63,0.00,,,0.00,,2018-01-18 00:29:00,
2018-01-17 16:34:00,67.3,55.0,30.28,SSE,158,2.0,-999.0,65,0.00,,,0.00,,2018-01-18 00:34:00,
2018-01-17 16:39:00,66.9,55.0,30.28,SSE,158,2.0,-999.0,66,0.00,,,0.00,,2018-01-18 00:39:00,
2018-01-17 16:44:00,66.4,55.0,30.28,SSE,158,3.0,-999.0,68,0.00,,,0.00,,2018-01-18 00:44:00,
2018-01-17 16:49:00,65.9,55.0,30.27,South,180,2.0,-999.0,68,0.00,,,0.00,,2018-01-18 00:49:00,
2018-01-17 16:54:00,65.8,54.0,30.28,South,180,1.0,-999.0,68,0.00,,,0.00,,2018-01-18 00:54:00,
2018-01-17 16:59:00,65.5,54.0,30.28,South,180,2.0,-999.0,68,0.00,,,0.00,,2018-01-18 00:59:00,
2018-01-17 17:04:00,65.2,54.0,30.28,SE,135,1.0,-999.0,69,0.00,,,0.00,,2018-01-18 01:04:00,
2018-01-17 17:09:00,64.9,54.0,30.28,West,270,0.0,-999.0,70,0.00,,,0.00,,2018-01-18 01:09:00,
2018-01-17 17:14:00,64.4,54.0,30.28,NNW,338,0.0,-999.0,70,0.00,,,0.00,,2018-01-18 01:14:00,
2018-01-17 17:18:00,64.1,54.0,30.28,NW,315,0.0,-999.0,70,0.00,,,0.00,,2018-01-18 01:18:00,
2018-01-17 17:23:00,63.9,54.0,30.28,NNW,338,0.0,-999.0,71,0.00,,,0.00,,2018-01-18 01:23:00,
2018-01-17 17:28:00,63.4,54.0,30.28,NW,315,0.0,-999.0,73,0.00,,,0.00,,2018-01-18 01:28:00,
2018-01-17 17:33:00,63.0,54.0,30.28,NW,315,0.0,-999.0,74,0.00,,,0.00,,2018-01-18 01:33:00,
2018-01-17 17:38:00,62.2,54.0,30.29,NW,315,0.0,-999.0,75,0.00,,,0.00,,2018-01-18 01:38:00,
2018-01-17 17:43:00,62.1,54.0,30.28,NW,315,0.0,-999.0,75,0.00,,,0.00,,2018-01-18 01:43:00,
2018-01-17 17:48:00,61.1,54.0,30.29,West,270,1.0,-999.0,79,0.00,,,0.00,,2018-01-18 01:48:00,
2018-01-17 17:54:00,60.7,54.0,30.28,NW,315,1.0,-999.0,80,0.00,,,0.00,,2018-01-18 01:54:00,
2018-01-17 17:59:00,60.3,54.0,30.29,NNW,338,1.0,-999.0,81,0.00,,,0.00,,2018-01-18 01:59:00,
2018-01-17 18:04:00,60.0,54.0,30.29,North,0,1.0,-999.0,81,0.00,,,0.00,,2018-01-18 02:04:00,
2018-01-17 18:09:00,59.7,54.0,30.29,NW,315,1.0,-999.0,81,0.00,,,0.00,,2018-01-18 02:09:00,
2018-01-17 18:14:00,59.4,54.0,30.29,WNW,293,1.0,-999.0,83,0.00,,,0.00,,2018-01-18 02:14:00,
2018-01-17 18:19:00,59.3,54.0,30.29,WNW,293,1.0,-999.0,83,0.00,,,0.00,,2018-01-18 02:19:00,
2018-01-17 18:24:00,59.2,54.0,30.29,NNW,338,1.0,-999.0,83,0.00,,,0.00,,2018-01-18 02:24:00,
2018-01-17 18:29:00,58.8,53.0,30.28,WNW,293,1.0,-999.0,83,0.00,,,0.00,,2018-01-18 02:29:00,
2018-01-17 18:34:00,58.5,53.0,30.29,WNW,293,0.0,-999.0,83,0.00,,,0.00,,2018-01-18 02:34:00,
2018-01-17 18:39:00,58.2,53.0,30.29,North,0,1.0,-999.0,83,0.00,,,0.00,,2018-01-18 02:39:00,
2018-01-17 18:44:00,57.8,53.0,30.29,WNW,293,1.0,-999.0,85,0.00,,,0.00,,2018-01-18 02:44:00,
2018-01-17 18:49:00,57.5,53.0,30.29,North,0,1.0,-999.0,86,0.00,,,0.00,,2018-01-18 02:49:00,
2018-01-17 18:54:00,57.2,53.0,30.29,North,0,1.0,-999.0,86,0.00,,,0.00,,2018-01-18 02:54:00,
2018-01-17 18:59:00,56.7,53.0,30.29,North,0,1.0,-999.0,88,0.00,,,0.00,,2018-01-18 02:59:00,
2018-01-17 19:04:00,56.5,53.0,30.29,NNW,338,1.0,-999.0,88,0.00,,,0.00,,2018-01-18 03:04:00,
2018-01-17 19:09:00,56.0,52.0,30.28,West,270,1.0,-999.0,88,0.00,,,0.00,,2018-01-18 03:09:00,
2018-01-17 19:14:00,55.9,53.0,30.28,NW,315,1.0,-999.0,90,0.00,,,0.00,,2018-01-18 03:14:00,
2018-01-17 19:19:00,55.7,53.0,30.28,West,270,1.0,-999.0,91,0.00,,,0.00,,2018-01-18 03:19:00,
2018-01-17 19:24:00,55.5,53.0,30.28,WNW,293,1.0,-999.0,91,0.00,,,0.00,,2018-01-18 03:24:00,
2018-01-17 19:29:00,55.3,52.0,30.28,WNW,293,2.0,-999.0,91,0.00,,,0.00,,2018-01-18 03:29:00,
2018-01-17 19:34:00,55.3,53.0,30.28,West,270,0.0,-999.0,91,0.00,,,0.00,,2018-01-18 03:34:00,
2018-01-17 19:39:00,55.3,53.0,30.28,WNW,293,0.0,-999.0,91,0.00,,,0.00,,2018-01-18 03:39:00,
2018-01-17 19:44:00,55.0,52.0,30.28,North,0,1.0,-999.0,91,0.00,,,0.00,,2018-01-18 03:44:00,
2018-01-17 19:49:00,54.7,52.0,30.28,NNW,338,1.0,-999.0,91,0.00,,,0.00,,2018-01-18 03:49:00,
2018-01-17 19:52:00,54.7,52.0,30.28,WNW,293,1.0,-999.0,91,0.00,,,0.00,,2018-01-18 03:52:00,
2018-01-17 19:57:00,54.4,52.0,30.28,West,270,0.0,-999.0,93,0.00,,,0.00,,2018-01-18 03:57:00,
2018-01-17 20:02:00,54.2,52.0,30.29,WNW,293,0.0,-999.0,91,0.00,,,0.00,,2018-01-18 04:02:00,
2018-01-17 20:07:00,53.8,51.0,30.28,WNW,293,1.0,-999.0,93,0.00,,,0.00,,2018-01-18 04:07:00,
2018-01-17 20:12:00,53.5,51.0,30.28,WNW,293,1.0,-999.0,93,0.00,,,0.00,,2018-01-18 04:12:00,
2018-01-17 20:17:00,53.5,52.0,30.28,West,270,2.0,-999.0,95,0.00,,,0.00,,2018-01-18 04:17:00,
2018-01-17 20:22:00,53.4,52.0,30.28,WNW,293,1.0,-999.0,95,0.00,,,0.00,,2018-01-18 04:22:00,
2018-01-17 20:27:00,53.2,51.0,30.28,WNW,293,1.0,-999.0,95,0.00,,,0.00,,2018-01-18 04:27:00,
2018-01-17 20:32:00,53.2,52.0,30.28,WNW,293,2.0,-999.0,96,0.00,,,0.00,,2018-01-18 04:32:00,
2018-01-17 20:37:00,53.2,52.0,30.28,WNW,293,1.0,-999.0,96,0.00,,,0.00,,2018-01-18 04:37:00,
2018-01-17 20:42:00,53.2,52.0,30.28,NNW,338,1.0,-999.0,96,0.00,,,0.00,,2018-01-18 04:42:00,
2018-01-17 20:47:00,52.8,51.0,30.29,ESE,113,1.0,-999.0,96,0.00,,,0.00,,2018-01-18 04:47:00,